sensor_id;sensor_type;location;lat;lon;timestamp;P1;durP1;ratioP1;P2;durP2;ratioP2
21251;SDS011;10784;50.578;17.878;2023-02-12T00:00:00;17.40;;;6.55;;
21251;SDS011;10784;50.578;17.878;2023-02-12T00:03:06;14.30;;;5.80;;
21251;SDS011;10784;50.578;17.878;2023-02-12T00:05:39;14.02;;;6.28;;
21251;SDS011;10784;50.578;17.878;2023-02-12T00:08:13;15.38;;;6.18;;
21251;SDS011;10784;50.578;17.878;2023-02-12T00:10:47;15.93;;;7.93;;
21251;SDS011;10784;50.578;17.878;2023-02-12T00:13:20;16.75;;;6.10;;
21251;SDS011;10784;50.578;17.878;2023-02-12T00:15:53;18.05;;;7.53;;
21251;SDS011;10784;50.578;17.878;2023-02-12T00:18:26;16.02;;;6.65;;
21251;SDS011;10784;50.578;17.878;2023-02-12T00:20:59;24.88;;;7.93;;
21251;SDS011;10784;50.578;17.878;2023-02-12T00:23:32;12.73;;;6.05;;
21251;SDS011;10784;50.578;17.878;2023-02-12T00:26:06;21.70;;;7.30;;
21251;SDS011;10784;50.578;17.878;2023-02-12T00:28:39;10.65;;;5.43;;
21251;SDS011;10784;50.578;17.878;2023-02-12T00:31:13;24.40;;;7.70;;
21251;SDS011;10784;50.578;17.878;2023-02-12T00:33:46;22.83;;;6.65;;
21251;SDS011;10784;50.578;17.878;2023-02-12T00:36:20;14.63;;;5.75;;
21251;SDS011;10784;50.578;17.878;2023-02-12T00:38:55;24.67;;;7.18;;
21251;SDS011;10784;50.578;17.878;2023-02-12T00:41:28;17.83;;;8.20;;
21251;SDS011;10784;50.578;17.878;2023-02-12T00:44:01;12.25;;;6.10;;
21251;SDS011;10784;50.578;17.878;2023-02-12T00:46:34;17.33;;;6.57;;
21251;SDS011;10784;50.578;17.878;2023-02-12T00:49:07;14.48;;;6.00;;
21251;SDS011;10784;50.578;17.878;2023-02-12T00:51:39;22.30;;;8.40;;
21251;SDS011;10784;50.578;17.878;2023-02-12T00:54:20;15.73;;;6.70;;
21251;SDS011;10784;50.578;17.878;2023-02-12T00:57:00;25.63;;;7.00;;
21251;SDS011;10784;50.578;17.878;2023-02-12T00:59:33;16.90;;;8.77;;
21251;SDS011;10784;50.578;17.878;2023-02-12T01:02:09;13.82;;;7.15;;
21251;SDS011;10784;50.578;17.878;2023-02-12T01:04:42;18.25;;;8.13;;
21251;SDS011;10784;50.578;17.878;2023-02-12T01:07:15;22.02;;;6.90;;
21251;SDS011;10784;50.578;17.878;2023-02-12T01:09:48;19.20;;;6.63;;
21251;SDS011;10784;50.578;17.878;2023-02-12T01:12:20;25.15;;;9.15;;
21251;SDS011;10784;50.578;17.878;2023-02-12T01:14:53;21.58;;;7.53;;
21251;SDS011;10784;50.578;17.878;2023-02-12T01:17:26;19.77;;;7.47;;
21251;SDS011;10784;50.578;17.878;2023-02-12T01:19:59;16.08;;;7.45;;
21251;SDS011;10784;50.578;17.878;2023-02-12T01:22:35;26.08;;;7.82;;
21251;SDS011;10784;50.578;17.878;2023-02-12T01:25:10;22.88;;;7.95;;
21251;SDS011;10784;50.578;17.878;2023-02-12T01:27:44;21.40;;;6.72;;
21251;SDS011;10784;50.578;17.878;2023-02-12T01:30:17;19.98;;;6.07;;
21251;SDS011;10784;50.578;17.878;2023-02-12T01:32:55;14.23;;;6.57;;
21251;SDS011;10784;50.578;17.878;2023-02-12T01:35:28;13.50;;;5.25;;
21251;SDS011;10784;50.578;17.878;2023-02-12T01:38:00;17.95;;;7.22;;
21251;SDS011;10784;50.578;17.878;2023-02-12T01:40:33;17.35;;;7.60;;
21251;SDS011;10784;50.578;17.878;2023-02-12T01:43:12;17.83;;;7.15;;
21251;SDS011;10784;50.578;17.878;2023-02-12T01:45:49;18.98;;;6.75;;
21251;SDS011;10784;50.578;17.878;2023-02-12T01:48:25;19.55;;;6.47;;
21251;SDS011;10784;50.578;17.878;2023-02-12T01:51:03;19.05;;;7.28;;
21251;SDS011;10784;50.578;17.878;2023-02-12T01:53:38;28.10;;;7.82;;
21251;SDS011;10784;50.578;17.878;2023-02-12T01:56:16;11.50;;;7.60;;
21251;SDS011;10784;50.578;17.878;2023-02-12T01:58:49;18.70;;;8.18;;
21251;SDS011;10784;50.578;17.878;2023-02-12T02:01:24;16.63;;;6.95;;
21251;SDS011;10784;50.578;17.878;2023-02-12T02:04:02;13.15;;;6.30;;
21251;SDS011;10784;50.578;17.878;2023-02-12T02:09:28;18.92;;;6.40;;
21251;SDS011;10784;50.578;17.878;2023-02-12T02:12:02;17.38;;;8.18;;
21251;SDS011;10784;50.578;17.878;2023-02-12T02:14:53;25.85;;;7.18;;
21251;SDS011;10784;50.578;17.878;2023-02-12T02:28:01;17.13;;;8.25;;
21251;SDS011;10784;50.578;17.878;2023-02-12T02:30:50;12.68;;;6.43;;
21251;SDS011;10784;50.578;17.878;2023-02-12T02:37:00;19.92;;;8.25;;
21251;SDS011;10784;50.578;17.878;2023-02-12T02:39:40;16.60;;;7.93;;
21251;SDS011;10784;50.578;17.878;2023-02-12T02:44:53;16.83;;;6.97;;
21251;SDS011;10784;50.578;17.878;2023-02-12T02:47:34;16.80;;;7.22;;
21251;SDS011;10784;50.578;17.878;2023-02-12T02:50:13;17.02;;;6.53;;
21251;SDS011;10784;50.578;17.878;2023-02-12T02:55:31;24.13;;;7.57;;
21251;SDS011;10784;50.578;17.878;2023-02-12T02:58:12;19.02;;;6.75;;
21251;SDS011;10784;50.578;17.878;2023-02-12T03:00:54;23.13;;;7.20;;
21251;SDS011;10784;50.578;17.878;2023-02-12T03:03:29;12.88;;;6.35;;
21251;SDS011;10784;50.578;17.878;2023-02-12T03:06:07;13.88;;;6.47;;
21251;SDS011;10784;50.578;17.878;2023-02-12T03:08:50;17.85;;;6.93;;
21251;SDS011;10784;50.578;17.878;2023-02-12T03:11:29;14.30;;;7.60;;
21251;SDS011;10784;50.578;17.878;2023-02-12T03:14:14;15.43;;;6.07;;
21251;SDS011;10784;50.578;17.878;2023-02-12T03:16:53;30.67;;;8.35;;
21251;SDS011;10784;50.578;17.878;2023-02-12T03:19:28;14.40;;;7.00;;
21251;SDS011;10784;50.578;17.878;2023-02-12T03:24:36;17.75;;;7.57;;
21251;SDS011;10784;50.578;17.878;2023-02-12T03:27:27;21.00;;;7.68;;
21251;SDS011;10784;50.578;17.878;2023-02-12T03:30:01;18.13;;;6.57;;
21251;SDS011;10784;50.578;17.878;2023-02-12T03:32:45;20.05;;;6.50;;
21251;SDS011;10784;50.578;17.878;2023-02-12T03:35:25;19.05;;;7.07;;
21251;SDS011;10784;50.578;17.878;2023-02-12T03:40:38;20.27;;;6.78;;
21251;SDS011;10784;50.578;17.878;2023-02-12T03:45:57;23.08;;;8.18;;
21251;SDS011;10784;50.578;17.878;2023-02-12T03:48:32;15.35;;;6.30;;
21251;SDS011;10784;50.578;17.878;2023-02-12T03:53:40;20.42;;;7.95;;
21251;SDS011;10784;50.578;17.878;2023-02-12T03:56:24;17.38;;;6.07;;
21251;SDS011;10784;50.578;17.878;2023-02-12T03:58:59;22.05;;;6.65;;
21251;SDS011;10784;50.578;17.878;2023-02-12T04:01:32;22.63;;;7.68;;
21251;SDS011;10784;50.578;17.878;2023-02-12T04:04:07;15.93;;;6.88;;
21251;SDS011;10784;50.578;17.878;2023-02-12T04:06:40;19.15;;;6.32;;
21251;SDS011;10784;50.578;17.878;2023-02-12T04:09:16;23.40;;;7.43;;
21251;SDS011;10784;50.578;17.878;2023-02-12T04:20:15;18.42;;;6.88;;
21251;SDS011;10784;50.578;17.878;2023-02-12T04:28:33;19.77;;;6.10;;
21251;SDS011;10784;50.578;17.878;2023-02-12T04:31:14;18.73;;;7.20;;
21251;SDS011;10784;50.578;17.878;2023-02-12T04:34:07;12.02;;;6.45;;
21251;SDS011;10784;50.578;17.878;2023-02-12T04:37:01;16.75;;;7.22;;
21251;SDS011;10784;50.578;17.878;2023-02-12T04:39:45;15.57;;;7.45;;
21251;SDS011;10784;50.578;17.878;2023-02-12T04:42:19;14.77;;;6.18;;
21251;SDS011;10784;50.578;17.878;2023-02-12T04:44:51;15.40;;;6.13;;
21251;SDS011;10784;50.578;17.878;2023-02-12T04:47:24;16.83;;;7.10;;
21251;SDS011;10784;50.578;17.878;2023-02-12T04:49:57;16.88;;;8.82;;
21251;SDS011;10784;50.578;17.878;2023-02-12T04:52:31;24.63;;;8.38;;
21251;SDS011;10784;50.578;17.878;2023-02-12T04:55:04;24.98;;;8.02;;
21251;SDS011;10784;50.578;17.878;2023-02-12T04:57:37;19.30;;;7.45;;
21251;SDS011;10784;50.578;17.878;2023-02-12T05:00:11;26.35;;;6.45;;
21251;SDS011;10784;50.578;17.878;2023-02-12T05:02:44;16.50;;;6.80;;
21251;SDS011;10784;50.578;17.878;2023-02-12T05:05:17;27.67;;;6.57;;
21251;SDS011;10784;50.578;17.878;2023-02-12T05:07:50;16.00;;;8.85;;
21251;SDS011;10784;50.578;17.878;2023-02-12T05:10:23;17.70;;;6.95;;
21251;SDS011;10784;50.578;17.878;2023-02-12T05:12:56;17.63;;;7.97;;
21251;SDS011;10784;50.578;17.878;2023-02-12T05:15:28;15.20;;;6.78;;
21251;SDS011;10784;50.578;17.878;2023-02-12T05:18:01;16.52;;;5.80;;
21251;SDS011;10784;50.578;17.878;2023-02-12T05:20:34;13.98;;;7.25;;
21251;SDS011;10784;50.578;17.878;2023-02-12T05:23:07;20.65;;;7.63;;
21251;SDS011;10784;50.578;17.878;2023-02-12T05:25:39;25.55;;;7.25;;
21251;SDS011;10784;50.578;17.878;2023-02-12T05:28:12;27.48;;;7.07;;
21251;SDS011;10784;50.578;17.878;2023-02-12T05:30:45;15.85;;;7.72;;
21251;SDS011;10784;50.578;17.878;2023-02-12T05:33:18;14.98;;;7.82;;
21251;SDS011;10784;50.578;17.878;2023-02-12T05:35:50;18.30;;;6.22;;
21251;SDS011;10784;50.578;17.878;2023-02-12T05:38:24;17.70;;;6.82;;
21251;SDS011;10784;50.578;17.878;2023-02-12T05:41:04;17.48;;;8.13;;
21251;SDS011;10784;50.578;17.878;2023-02-12T05:43:37;20.85;;;7.43;;
21251;SDS011;10784;50.578;17.878;2023-02-12T05:46:10;17.17;;;6.28;;
21251;SDS011;10784;50.578;17.878;2023-02-12T05:48:44;21.08;;;6.72;;
21251;SDS011;10784;50.578;17.878;2023-02-12T05:51:17;15.20;;;7.53;;
21251;SDS011;10784;50.578;17.878;2023-02-12T05:53:56;24.15;;;7.15;;
21251;SDS011;10784;50.578;17.878;2023-02-12T05:56:30;19.58;;;7.55;;
21251;SDS011;10784;50.578;17.878;2023-02-12T05:59:07;23.08;;;7.22;;
21251;SDS011;10784;50.578;17.878;2023-02-12T06:01:41;14.98;;;6.35;;
21251;SDS011;10784;50.578;17.878;2023-02-12T06:04:19;28.75;;;8.07;;
21251;SDS011;10784;50.578;17.878;2023-02-12T06:06:52;19.27;;;7.25;;
21251;SDS011;10784;50.578;17.878;2023-02-12T06:09:25;29.75;;;8.77;;
21251;SDS011;10784;50.578;17.878;2023-02-12T06:11:58;45.33;;;16.75;;
21251;SDS011;10784;50.578;17.878;2023-02-12T06:14:31;38.20;;;14.38;;
21251;SDS011;10784;50.578;17.878;2023-02-12T06:17:04;40.08;;;14.52;;
21251;SDS011;10784;50.578;17.878;2023-02-12T06:19:36;33.42;;;14.38;;
21251;SDS011;10784;50.578;17.878;2023-02-12T06:22:09;51.65;;;16.38;;
21251;SDS011;10784;50.578;17.878;2023-02-12T06:24:42;109.68;;;33.53;;
21251;SDS011;10784;50.578;17.878;2023-02-12T06:27:15;71.05;;;23.42;;
21251;SDS011;10784;50.578;17.878;2023-02-12T06:29:48;46.70;;;14.02;;
21251;SDS011;10784;50.578;17.878;2023-02-12T06:32:20;32.25;;;11.60;;
21251;SDS011;10784;50.578;17.878;2023-02-12T06:34:54;27.02;;;8.50;;
21251;SDS011;10784;50.578;17.878;2023-02-12T06:37:26;20.90;;;7.65;;
21251;SDS011;10784;50.578;17.878;2023-02-12T06:39:59;25.58;;;7.03;;
21251;SDS011;10784;50.578;17.878;2023-02-12T06:42:32;24.92;;;7.38;;
21251;SDS011;10784;50.578;17.878;2023-02-12T06:45:05;16.50;;;6.68;;
21251;SDS011;10784;50.578;17.878;2023-02-12T06:47:37;16.60;;;5.18;;
21251;SDS011;10784;50.578;17.878;2023-02-12T06:50:10;11.85;;;5.30;;
21251;SDS011;10784;50.578;17.878;2023-02-12T06:52:43;10.35;;;4.97;;
21251;SDS011;10784;50.578;17.878;2023-02-12T06:55:16;18.20;;;6.65;;
21251;SDS011;10784;50.578;17.878;2023-02-12T06:57:48;17.30;;;6.22;;
21251;SDS011;10784;50.578;17.878;2023-02-12T07:00:22;17.17;;;8.55;;
21251;SDS011;10784;50.578;17.878;2023-02-12T07:02:55;20.90;;;6.35;;
21251;SDS011;10784;50.578;17.878;2023-02-12T07:05:28;29.15;;;9.02;;
21251;SDS011;10784;50.578;17.878;2023-02-12T07:08:01;20.95;;;8.77;;
21251;SDS011;10784;50.578;17.878;2023-02-12T07:10:33;25.45;;;7.90;;
21251;SDS011;10784;50.578;17.878;2023-02-12T07:13:06;20.67;;;6.13;;
21251;SDS011;10784;50.578;17.878;2023-02-12T07:15:39;26.52;;;8.57;;
21251;SDS011;10784;50.578;17.878;2023-02-12T07:18:12;32.92;;;10.23;;
21251;SDS011;10784;50.578;17.878;2023-02-12T07:20:45;25.90;;;7.00;;
21251;SDS011;10784;50.578;17.878;2023-02-12T07:23:18;24.10;;;8.30;;
21251;SDS011;10784;50.578;17.878;2023-02-12T07:25:54;31.05;;;9.73;;
21251;SDS011;10784;50.578;17.878;2023-02-12T07:28:28;19.70;;;8.48;;
21251;SDS011;10784;50.578;17.878;2023-02-12T07:31:23;18.90;;;7.40;;
21251;SDS011;10784;50.578;17.878;2023-02-12T07:33:57;13.73;;;6.95;;
21251;SDS011;10784;50.578;17.878;2023-02-12T07:36:30;16.88;;;6.88;;
21251;SDS011;10784;50.578;17.878;2023-02-12T07:39:04;52.75;;;18.10;;
21251;SDS011;10784;50.578;17.878;2023-02-12T07:41:37;37.90;;;13.43;;
21251;SDS011;10784;50.578;17.878;2023-02-12T07:44:10;33.83;;;10.35;;
21251;SDS011;10784;50.578;17.878;2023-02-12T07:46:45;92.40;;;27.90;;
21251;SDS011;10784;50.578;17.878;2023-02-12T07:49:20;46.22;;;12.30;;
21251;SDS011;10784;50.578;17.878;2023-02-12T07:51:53;45.40;;;15.15;;
21251;SDS011;10784;50.578;17.878;2023-02-12T07:54:27;42.22;;;14.10;;
21251;SDS011;10784;50.578;17.878;2023-02-12T07:57:00;16.63;;;5.97;;
21251;SDS011;10784;50.578;17.878;2023-02-12T07:59:33;17.70;;;8.07;;
21251;SDS011;10784;50.578;17.878;2023-02-12T08:02:08;22.98;;;8.15;;
21251;SDS011;10784;50.578;17.878;2023-02-12T08:04:41;24.17;;;9.93;;
21251;SDS011;10784;50.578;17.878;2023-02-12T08:07:14;26.73;;;9.18;;
21251;SDS011;10784;50.578;17.878;2023-02-12T08:09:47;17.92;;;6.35;;
21251;SDS011;10784;50.578;17.878;2023-02-12T08:12:20;21.02;;;6.72;;
21251;SDS011;10784;50.578;17.878;2023-02-12T08:14:52;16.38;;;6.72;;
21251;SDS011;10784;50.578;17.878;2023-02-12T08:17:26;11.30;;;5.78;;
21251;SDS011;10784;50.578;17.878;2023-02-12T08:19:58;24.48;;;6.90;;
21251;SDS011;10784;50.578;17.878;2023-02-12T08:22:31;24.23;;;7.15;;
21251;SDS011;10784;50.578;17.878;2023-02-12T08:25:04;15.70;;;5.78;;
21251;SDS011;10784;50.578;17.878;2023-02-12T08:27:39;24.80;;;5.65;;
21251;SDS011;10784;50.578;17.878;2023-02-12T08:30:12;9.20;;;4.82;;
21251;SDS011;10784;50.578;17.878;2023-02-12T08:32:48;21.08;;;5.57;;
21251;SDS011;10784;50.578;17.878;2023-02-12T08:35:20;16.23;;;5.13;;
21251;SDS011;10784;50.578;17.878;2023-02-12T08:37:53;15.55;;;5.00;;
21251;SDS011;10784;50.578;17.878;2023-02-12T08:40:26;14.43;;;4.47;;
21251;SDS011;10784;50.578;17.878;2023-02-12T08:42:59;12.98;;;4.75;;
21251;SDS011;10784;50.578;17.878;2023-02-12T08:45:31;8.30;;;3.90;;
21251;SDS011;10784;50.578;17.878;2023-02-12T08:48:04;21.02;;;6.05;;
21251;SDS011;10784;50.578;17.878;2023-02-12T08:50:37;12.82;;;4.72;;
21251;SDS011;10784;50.578;17.878;2023-02-12T08:53:10;11.48;;;4.40;;
21251;SDS011;10784;50.578;17.878;2023-02-12T08:55:47;14.15;;;6.47;;
21251;SDS011;10784;50.578;17.878;2023-02-12T08:58:20;14.23;;;4.35;;
21251;SDS011;10784;50.578;17.878;2023-02-12T09:00:52;10.18;;;3.80;;
21251;SDS011;10784;50.578;17.878;2023-02-12T09:03:25;10.77;;;4.85;;
21251;SDS011;10784;50.578;17.878;2023-02-12T09:06:00;10.43;;;4.00;;
21251;SDS011;10784;50.578;17.878;2023-02-12T09:08:34;15.02;;;5.10;;
21251;SDS011;10784;50.578;17.878;2023-02-12T09:11:13;17.80;;;4.90;;
21251;SDS011;10784;50.578;17.878;2023-02-12T09:13:48;5.80;;;3.40;;
21251;SDS011;10784;50.578;17.878;2023-02-12T09:16:20;12.32;;;3.25;;
21251;SDS011;10784;50.578;17.878;2023-02-12T09:18:53;13.98;;;6.75;;
21251;SDS011;10784;50.578;17.878;2023-02-12T09:21:26;22.08;;;5.47;;
21251;SDS011;10784;50.578;17.878;2023-02-12T09:24:00;16.88;;;5.18;;
21251;SDS011;10784;50.578;17.878;2023-02-12T09:26:32;7.20;;;3.13;;
21251;SDS011;10784;50.578;17.878;2023-02-12T09:29:05;8.45;;;4.65;;
21251;SDS011;10784;50.578;17.878;2023-02-12T09:31:38;8.25;;;4.57;;
21251;SDS011;10784;50.578;17.878;2023-02-12T09:34:11;10.45;;;4.22;;
21251;SDS011;10784;50.578;17.878;2023-02-12T09:36:44;19.67;;;5.20;;
21251;SDS011;10784;50.578;17.878;2023-02-12T09:39:17;15.98;;;5.95;;
21251;SDS011;10784;50.578;17.878;2023-02-12T09:49:54;12.13;;;4.78;;
21251;SDS011;10784;50.578;17.878;2023-02-12T09:52:30;12.88;;;5.50;;
21251;SDS011;10784;50.578;17.878;2023-02-12T09:55:03;18.15;;;4.40;;
21251;SDS011;10784;50.578;17.878;2023-02-12T09:57:36;10.07;;;4.13;;
21251;SDS011;10784;50.578;17.878;2023-02-12T10:02:42;13.57;;;5.30;;
21251;SDS011;10784;50.578;17.878;2023-02-12T10:05:19;15.18;;;4.70;;
21251;SDS011;10784;50.578;17.878;2023-02-12T10:13:30;5.90;;;3.45;;
21251;SDS011;10784;50.578;17.878;2023-02-12T10:27:15;14.80;;;5.30;;
21251;SDS011;10784;50.578;17.878;2023-02-12T10:32:24;28.20;;;5.55;;
21251;SDS011;10784;50.578;17.878;2023-02-12T10:34:59;16.02;;;4.95;;
21251;SDS011;10784;50.578;17.878;2023-02-12T10:37:36;14.73;;;4.93;;
21251;SDS011;10784;50.578;17.878;2023-02-12T10:40:19;11.60;;;4.32;;
21251;SDS011;10784;50.578;17.878;2023-02-12T10:42:53;12.75;;;5.72;;
21251;SDS011;10784;50.578;17.878;2023-02-12T10:45:31;14.88;;;4.20;;
21251;SDS011;10784;50.578;17.878;2023-02-12T10:48:16;11.82;;;5.55;;
21251;SDS011;10784;50.578;17.878;2023-02-12T10:53:41;23.90;;;5.70;;
21251;SDS011;10784;50.578;17.878;2023-02-12T10:56:15;19.88;;;5.57;;
21251;SDS011;10784;50.578;17.878;2023-02-12T10:58:57;13.60;;;4.90;;
21251;SDS011;10784;50.578;17.878;2023-02-12T11:01:34;10.63;;;5.45;;
21251;SDS011;10784;50.578;17.878;2023-02-12T11:07:00;23.08;;;6.45;;
21251;SDS011;10784;50.578;17.878;2023-02-12T11:09:37;12.32;;;5.05;;
21251;SDS011;10784;50.578;17.878;2023-02-12T11:12:23;18.42;;;6.78;;
21251;SDS011;10784;50.578;17.878;2023-02-12T11:14:58;27.88;;;6.88;;
21251;SDS011;10784;50.578;17.878;2023-02-12T11:17:35;15.43;;;6.25;;
21251;SDS011;10784;50.578;17.878;2023-02-12T11:22:51;18.60;;;6.63;;
21251;SDS011;10784;50.578;17.878;2023-02-12T11:25:26;82.78;;;31.92;;
21251;SDS011;10784;50.578;17.878;2023-02-12T11:30:35;31.42;;;6.28;;
21251;SDS011;10784;50.578;17.878;2023-02-12T11:33:26;24.35;;;8.07;;
21251;SDS011;10784;50.578;17.878;2023-02-12T11:38:35;26.60;;;6.70;;
21251;SDS011;10784;50.578;17.878;2023-02-12T11:41:54;21.20;;;7.53;;
21251;SDS011;10784;50.578;17.878;2023-02-12T11:44:02;17.13;;;7.55;;
21251;SDS011;10784;50.578;17.878;2023-02-12T11:46:44;36.85;;;8.35;;
21251;SDS011;10784;50.578;17.878;2023-02-12T11:49:19;16.35;;;6.57;;
21251;SDS011;10784;50.578;17.878;2023-02-12T11:51:53;24.35;;;8.70;;
21251;SDS011;10784;50.578;17.878;2023-02-12T11:54:27;23.58;;;8.32;;
21251;SDS011;10784;50.578;17.878;2023-02-12T11:57:00;21.13;;;8.00;;
21251;SDS011;10784;50.578;17.878;2023-02-12T11:59:37;25.75;;;7.95;;
21251;SDS011;10784;50.578;17.878;2023-02-12T12:07:31;15.05;;;7.07;;
21251;SDS011;10784;50.578;17.878;2023-02-12T12:10:06;20.70;;;6.22;;
21251;SDS011;10784;50.578;17.878;2023-02-12T12:12:45;17.33;;;5.60;;
21251;SDS011;10784;50.578;17.878;2023-02-12T12:15:26;19.20;;;7.25;;
21251;SDS011;10784;50.578;17.878;2023-02-12T12:18:30;19.52;;;6.45;;
21251;SDS011;10784;50.578;17.878;2023-02-12T12:24:02;15.88;;;6.72;;
21251;SDS011;10784;50.578;17.878;2023-02-12T12:26:35;13.93;;;5.55;;
21251;SDS011;10784;50.578;17.878;2023-02-12T12:29:24;23.25;;;6.30;;
21251;SDS011;10784;50.578;17.878;2023-02-12T12:31:59;23.80;;;7.85;;
21251;SDS011;10784;50.578;17.878;2023-02-12T12:34:33;40.60;;;8.73;;
21251;SDS011;10784;50.578;17.878;2023-02-12T12:59:09;19.63;;;5.53;;
21251;SDS011;10784;50.578;17.878;2023-02-12T13:12:21;14.20;;;5.57;;
21251;SDS011;10784;50.578;17.878;2023-02-12T13:25:49;64.70;;;19.73;;
21251;SDS011;10784;50.578;17.878;2023-02-12T13:28:48;21.47;;;5.30;;
21251;SDS011;10784;50.578;17.878;2023-02-12T13:31:19;16.98;;;8.60;;
21251;SDS011;10784;50.578;17.878;2023-02-12T13:34:06;26.52;;;12.05;;
21251;SDS011;10784;50.578;17.878;2023-02-12T13:36:38;14.50;;;5.32;;
21251;SDS011;10784;50.578;17.878;2023-02-12T13:41:53;18.95;;;6.18;;
21251;SDS011;10784;50.578;17.878;2023-02-12T13:47:16;17.65;;;5.65;;
21251;SDS011;10784;50.578;17.878;2023-02-12T13:49:59;24.33;;;4.53;;
21251;SDS011;10784;50.578;17.878;2023-02-12T13:52:46;13.90;;;5.93;;
21251;SDS011;10784;50.578;17.878;2023-02-12T13:55:25;11.63;;;5.72;;
21251;SDS011;10784;50.578;17.878;2023-02-12T14:03:25;19.35;;;6.45;;
21251;SDS011;10784;50.578;17.878;2023-02-12T14:06:09;8.63;;;4.97;;
21251;SDS011;10784;50.578;17.878;2023-02-12T14:08:43;12.93;;;5.43;;
21251;SDS011;10784;50.578;17.878;2023-02-12T14:11:19;29.00;;;6.43;;
21251;SDS011;10784;50.578;17.878;2023-02-12T14:13:54;28.17;;;5.75;;
21251;SDS011;10784;50.578;17.878;2023-02-12T14:21:52;16.45;;;5.55;;
21251;SDS011;10784;50.578;17.878;2023-02-12T14:27:24;12.90;;;5.60;;
21251;SDS011;10784;50.578;17.878;2023-02-12T14:30:02;19.77;;;5.53;;
21251;SDS011;10784;50.578;17.878;2023-02-12T14:35:34;13.52;;;4.82;;
21251;SDS011;10784;50.578;17.878;2023-02-12T14:40:46;24.40;;;5.88;;
21251;SDS011;10784;50.578;17.878;2023-02-12T14:48:56;12.77;;;5.13;;
21251;SDS011;10784;50.578;17.878;2023-02-12T14:51:35;18.60;;;6.45;;
21251;SDS011;10784;50.578;17.878;2023-02-12T14:54:12;13.45;;;5.57;;
21251;SDS011;10784;50.578;17.878;2023-02-12T14:56:47;17.45;;;5.30;;
21251;SDS011;10784;50.578;17.878;2023-02-12T14:59:22;12.15;;;5.03;;
21251;SDS011;10784;50.578;17.878;2023-02-12T15:01:56;22.73;;;6.78;;
21251;SDS011;10784;50.578;17.878;2023-02-12T15:04:31;30.38;;;9.68;;
21251;SDS011;10784;50.578;17.878;2023-02-12T15:07:08;40.95;;;12.27;;
21251;SDS011;10784;50.578;17.878;2023-02-12T15:09:45;30.80;;;12.40;;
21251;SDS011;10784;50.578;17.878;2023-02-12T15:12:20;28.13;;;12.32;;
21251;SDS011;10784;50.578;17.878;2023-02-12T15:15:04;32.00;;;11.00;;
21251;SDS011;10784;50.578;17.878;2023-02-12T15:17:40;17.92;;;7.68;;
21251;SDS011;10784;50.578;17.878;2023-02-12T15:20:24;35.38;;;9.35;;
21251;SDS011;10784;50.578;17.878;2023-02-12T15:22:57;26.00;;;10.48;;
21251;SDS011;10784;50.578;17.878;2023-02-12T15:25:31;52.42;;;15.07;;
21251;SDS011;10784;50.578;17.878;2023-02-12T15:28:20;42.67;;;14.43;;
21251;SDS011;10784;50.578;17.878;2023-02-12T15:30:55;81.72;;;19.52;;
21251;SDS011;10784;50.578;17.878;2023-02-12T15:33:30;86.30;;;23.70;;
21251;SDS011;10784;50.578;17.878;2023-02-12T15:36:04;73.93;;;18.98;;
21251;SDS011;10784;50.578;17.878;2023-02-12T15:38:39;40.95;;;13.57;;
21251;SDS011;10784;50.578;17.878;2023-02-12T15:41:34;43.80;;;13.18;;
21251;SDS011;10784;50.578;17.878;2023-02-12T15:44:22;35.45;;;11.70;;
21251;SDS011;10784;50.578;17.878;2023-02-12T15:47:00;34.72;;;9.98;;
21251;SDS011;10784;50.578;17.878;2023-02-12T15:49:34;39.72;;;11.27;;
21251;SDS011;10784;50.578;17.878;2023-02-12T15:52:08;49.80;;;18.25;;
21251;SDS011;10784;50.578;17.878;2023-02-12T15:54:43;28.52;;;10.95;;
21251;SDS011;10784;50.578;17.878;2023-02-12T15:57:22;30.65;;;9.93;;
21251;SDS011;10784;50.578;17.878;2023-02-12T15:59:56;21.52;;;7.90;;
21251;SDS011;10784;50.578;17.878;2023-02-12T16:02:31;24.27;;;8.75;;
21251;SDS011;10784;50.578;17.878;2023-02-12T16:05:09;19.77;;;8.10;;
21251;SDS011;10784;50.578;17.878;2023-02-12T16:07:43;18.70;;;8.57;;
21251;SDS011;10784;50.578;17.878;2023-02-12T16:10:17;24.65;;;8.73;;
21251;SDS011;10784;50.578;17.878;2023-02-12T16:12:50;32.97;;;13.10;;
21251;SDS011;10784;50.578;17.878;2023-02-12T16:15:25;30.65;;;13.50;;
21251;SDS011;10784;50.578;17.878;2023-02-12T16:17:58;36.38;;;12.18;;
21251;SDS011;10784;50.578;17.878;2023-02-12T16:20:35;31.40;;;10.98;;
21251;SDS011;10784;50.578;17.878;2023-02-12T16:23:10;26.85;;;10.05;;
21251;SDS011;10784;50.578;17.878;2023-02-12T16:25:43;35.35;;;11.40;;
21251;SDS011;10784;50.578;17.878;2023-02-12T16:28:26;23.70;;;11.35;;
21251;SDS011;10784;50.578;17.878;2023-02-12T16:31:06;27.70;;;10.30;;
21251;SDS011;10784;50.578;17.878;2023-02-12T16:38:52;31.38;;;14.63;;
21251;SDS011;10784;50.578;17.878;2023-02-12T16:41:26;34.50;;;12.77;;
21251;SDS011;10784;50.578;17.878;2023-02-12T16:46:33;45.15;;;16.55;;
21251;SDS011;10784;50.578;17.878;2023-02-12T16:49:16;53.10;;;19.48;;
21251;SDS011;10784;50.578;17.878;2023-02-12T16:51:49;51.38;;;17.88;;
21251;SDS011;10784;50.578;17.878;2023-02-12T16:54:26;32.13;;;12.82;;
21251;SDS011;10784;50.578;17.878;2023-02-12T16:57:00;50.13;;;18.58;;
21251;SDS011;10784;50.578;17.878;2023-02-12T16:59:33;49.83;;;17.92;;
21251;SDS011;10784;50.578;17.878;2023-02-12T17:02:12;34.47;;;12.63;;
21251;SDS011;10784;50.578;17.878;2023-02-12T17:04:46;35.15;;;13.88;;
21251;SDS011;10784;50.578;17.878;2023-02-12T17:07:20;36.22;;;14.40;;
21251;SDS011;10784;50.578;17.878;2023-02-12T17:09:53;40.10;;;15.27;;
21251;SDS011;10784;50.578;17.878;2023-02-12T17:12:26;48.63;;;18.33;;
21251;SDS011;10784;50.578;17.878;2023-02-12T17:15:02;43.25;;;18.17;;
21251;SDS011;10784;50.578;17.878;2023-02-12T17:17:34;38.28;;;14.32;;
21251;SDS011;10784;50.578;17.878;2023-02-12T17:20:07;44.58;;;13.55;;
21251;SDS011;10784;50.578;17.878;2023-02-12T17:22:41;48.38;;;16.80;;
21251;SDS011;10784;50.578;17.878;2023-02-12T17:25:17;47.95;;;18.95;;
21251;SDS011;10784;50.578;17.878;2023-02-12T17:27:50;44.20;;;18.88;;
21251;SDS011;10784;50.578;17.878;2023-02-12T17:30:23;47.65;;;18.55;;
21251;SDS011;10784;50.578;17.878;2023-02-12T17:32:57;54.33;;;23.70;;
21251;SDS011;10784;50.578;17.878;2023-02-12T17:35:30;52.03;;;21.00;;
21251;SDS011;10784;50.578;17.878;2023-02-12T17:38:03;48.03;;;20.67;;
21251;SDS011;10784;50.578;17.878;2023-02-12T17:40:37;42.70;;;18.45;;
21251;SDS011;10784;50.578;17.878;2023-02-12T17:43:09;57.83;;;19.20;;
21251;SDS011;10784;50.578;17.878;2023-02-12T17:45:42;58.38;;;21.52;;
21251;SDS011;10784;50.578;17.878;2023-02-12T17:48:15;62.13;;;19.45;;
21251;SDS011;10784;50.578;17.878;2023-02-12T17:50:51;54.42;;;17.30;;
21251;SDS011;10784;50.578;17.878;2023-02-12T17:53:24;43.38;;;15.05;;
21251;SDS011;10784;50.578;17.878;2023-02-12T17:55:57;46.85;;;16.33;;
21251;SDS011;10784;50.578;17.878;2023-02-12T17:58:30;71.57;;;20.40;;
21251;SDS011;10784;50.578;17.878;2023-02-12T18:01:07;81.15;;;23.00;;
21251;SDS011;10784;50.578;17.878;2023-02-12T18:03:40;64.38;;;23.58;;
21251;SDS011;10784;50.578;17.878;2023-02-12T18:06:17;73.25;;;27.10;;